sensor_id;sensor_type;location;lat;lon;timestamp;P1;durP1;ratioP1;P2;durP2;ratioP2
19173;SDS011;9719;49.322;8.536;2023-04-19T00:00:11;3.63;;;2.88;;
19173;SDS011;9719;49.322;8.536;2023-04-19T00:05:13;4.25;;;2.67;;
19173;SDS011;9719;49.322;8.536;2023-04-19T00:10:16;3.13;;;2.83;;
19173;SDS011;9719;49.322;8.536;2023-04-19T00:15:18;3.05;;;2.47;;
19173;SDS011;9719;49.322;8.536;2023-04-19T00:20:20;3.17;;;2.58;;
19173;SDS011;9719;49.322;8.536;2023-04-19T00:25:24;2.67;;;2.47;;
19173;SDS011;9719;49.322;8.536;2023-04-19T00:30:27;2.90;;;2.70;;
19173;SDS011;9719;49.322;8.536;2023-04-19T00:35:29;2.92;;;2.55;;
19173;SDS011;9719;49.322;8.536;2023-04-19T00:40:32;2.17;;;2.08;;
19173;SDS011;9719;49.322;8.536;2023-04-19T00:45:33;3.22;;;1.95;;
19173;SDS011;9719;49.322;8.536;2023-04-19T00:50:36;2.13;;;1.85;;
19173;SDS011;9719;49.322;8.536;2023-04-19T00:55:39;5.18;;;2.92;;
19173;SDS011;9719;49.322;8.536;2023-04-19T01:00:41;2.65;;;2.45;;
19173;SDS011;9719;49.322;8.536;2023-04-19T01:05:44;4.10;;;2.42;;
19173;SDS011;9719;49.322;8.536;2023-04-19T01:10:47;2.58;;;2.33;;
19173;SDS011;9719;49.322;8.536;2023-04-19T01:15:48;2.97;;;2.63;;
19173;SDS011;9719;49.322;8.536;2023-04-19T01:20:50;2.80;;;2.30;;
19173;SDS011;9719;49.322;8.536;2023-04-19T01:25:53;2.67;;;2.28;;
19173;SDS011;9719;49.322;8.536;2023-04-19T01:30:55;2.42;;;2.30;;
19173;SDS011;9719;49.322;8.536;2023-04-19T01:35:57;3.83;;;2.20;;
19173;SDS011;9719;49.322;8.536;2023-04-19T01:41:00;3.58;;;3.13;;
19173;SDS011;9719;49.322;8.536;2023-04-19T01:46:01;3.65;;;2.75;;
19173;SDS011;9719;49.322;8.536;2023-04-19T01:51:03;2.58;;;2.35;;
19173;SDS011;9719;49.322;8.536;2023-04-19T01:56:06;2.60;;;2.17;;
19173;SDS011;9719;49.322;8.536;2023-04-19T02:01:08;3.10;;;2.63;;
19173;SDS011;9719;49.322;8.536;2023-04-19T02:06:11;3.17;;;2.97;;
19173;SDS011;9719;49.322;8.536;2023-04-19T02:11:15;3.72;;;2.45;;
19173;SDS011;9719;49.322;8.536;2023-04-19T02:16:17;3.80;;;2.03;;
19173;SDS011;9719;49.322;8.536;2023-04-19T02:21:19;2.22;;;2.10;;
19173;SDS011;9719;49.322;8.536;2023-04-19T02:26:22;2.85;;;2.58;;
19173;SDS011;9719;49.322;8.536;2023-04-19T02:31:24;3.10;;;2.50;;
19173;SDS011;9719;49.322;8.536;2023-04-19T02:36:26;3.72;;;1.92;;
19173;SDS011;9719;49.322;8.536;2023-04-19T02:41:29;2.42;;;2.22;;
19173;SDS011;9719;49.322;8.536;2023-04-19T02:46:31;2.28;;;2.08;;
19173;SDS011;9719;49.322;8.536;2023-04-19T02:51:32;3.15;;;2.53;;
19173;SDS011;9719;49.322;8.536;2023-04-19T02:56:35;2.75;;;2.55;;
19173;SDS011;9719;49.322;8.536;2023-04-19T03:01:37;2.25;;;2.05;;
19173;SDS011;9719;49.322;8.536;2023-04-19T03:06:39;2.70;;;2.50;;
19173;SDS011;9719;49.322;8.536;2023-04-19T03:11:42;2.53;;;2.33;;
19173;SDS011;9719;49.322;8.536;2023-04-19T03:16:44;5.07;;;2.60;;
19173;SDS011;9719;49.322;8.536;2023-04-19T03:21:45;3.88;;;2.00;;
19173;SDS011;9719;49.322;8.536;2023-04-19T03:26:48;2.03;;;1.80;;
19173;SDS011;9719;49.322;8.536;2023-04-19T03:31:50;2.15;;;2.05;;
19173;SDS011;9719;49.322;8.536;2023-04-19T03:36:52;3.35;;;2.22;;
19173;SDS011;9719;49.322;8.536;2023-04-19T03:41:55;2.50;;;2.22;;
19173;SDS011;9719;49.322;8.536;2023-04-19T03:46:56;2.35;;;1.98;;
19173;SDS011;9719;49.322;8.536;2023-04-19T03:51:58;3.47;;;2.25;;
19173;SDS011;9719;49.322;8.536;2023-04-19T03:57:01;2.50;;;2.30;;
19173;SDS011;9719;49.322;8.536;2023-04-19T04:02:04;3.28;;;2.97;;
19173;SDS011;9719;49.322;8.536;2023-04-19T04:07:06;3.20;;;2.58;;
19173;SDS011;9719;49.322;8.536;2023-04-19T04:12:09;2.63;;;2.40;;
19173;SDS011;9719;49.322;8.536;2023-04-19T04:17:12;3.03;;;2.45;;
19173;SDS011;9719;49.322;8.536;2023-04-19T04:22:13;2.78;;;2.30;;
19173;SDS011;9719;49.322;8.536;2023-04-19T04:27:17;3.72;;;2.55;;
19173;SDS011;9719;49.322;8.536;2023-04-19T04:32:20;2.22;;;2.00;;
19173;SDS011;9719;49.322;8.536;2023-04-19T04:37:22;2.90;;;2.47;;
19173;SDS011;9719;49.322;8.536;2023-04-19T04:42:26;3.33;;;3.13;;
19173;SDS011;9719;49.322;8.536;2023-04-19T04:47:30;3.17;;;2.38;;
19173;SDS011;9719;49.322;8.536;2023-04-19T04:52:32;3.85;;;2.65;;
19173;SDS011;9719;49.322;8.536;2023-04-19T04:57:35;5.50;;;2.40;;
19173;SDS011;9719;49.322;8.536;2023-04-19T05:02:37;5.35;;;2.42;;
19173;SDS011;9719;49.322;8.536;2023-04-19T05:07:38;3.65;;;2.85;;
19173;SDS011;9719;49.322;8.536;2023-04-19T05:12:42;4.15;;;2.83;;
19173;SDS011;9719;49.322;8.536;2023-04-19T05:17:44;3.08;;;2.60;;
19173;SDS011;9719;49.322;8.536;2023-04-19T05:22:45;2.58;;;2.38;;
19173;SDS011;9719;49.322;8.536;2023-04-19T05:27:48;3.88;;;2.65;;
19173;SDS011;9719;49.322;8.536;2023-04-19T05:32:50;8.45;;;4.00;;
19173;SDS011;9719;49.322;8.536;2023-04-19T05:37:52;3.35;;;2.78;;
19173;SDS011;9719;49.322;8.536;2023-04-19T05:42:55;4.10;;;2.65;;
19173;SDS011;9719;49.322;8.536;2023-04-19T05:47:56;3.47;;;2.88;;
19173;SDS011;9719;49.322;8.536;2023-04-19T05:52:58;3.40;;;3.10;;
19173;SDS011;9719;49.322;8.536;2023-04-19T05:58:01;3.03;;;2.53;;
19173;SDS011;9719;49.322;8.536;2023-04-19T06:03:03;3.33;;;2.15;;
19173;SDS011;9719;49.322;8.536;2023-04-19T06:08:05;3.20;;;2.90;;
19173;SDS011;9719;49.322;8.536;2023-04-19T06:13:09;2.92;;;2.17;;
19173;SDS011;9719;49.322;8.536;2023-04-19T06:18:11;3.58;;;2.83;;
19173;SDS011;9719;49.322;8.536;2023-04-19T06:23:13;2.78;;;2.58;;
19173;SDS011;9719;49.322;8.536;2023-04-19T06:28:17;2.60;;;2.40;;
19173;SDS011;9719;49.322;8.536;2023-04-19T06:33:19;2.97;;;2.47;;
19173;SDS011;9719;49.322;8.536;2023-04-19T06:38:20;4.22;;;2.45;;
19173;SDS011;9719;49.322;8.536;2023-04-19T06:43:23;2.85;;;2.38;;
19173;SDS011;9719;49.322;8.536;2023-04-19T06:48:25;2.35;;;2.15;;
19173;SDS011;9719;49.322;8.536;2023-04-19T06:53:27;3.63;;;3.22;;
19173;SDS011;9719;49.322;8.536;2023-04-19T06:58:31;2.90;;;2.70;;
19173;SDS011;9719;49.322;8.536;2023-04-19T07:03:33;2.67;;;2.47;;
19173;SDS011;9719;49.322;8.536;2023-04-19T07:08:35;2.78;;;2.50;;
19173;SDS011;9719;49.322;8.536;2023-04-19T07:13:38;3.42;;;2.58;;
19173;SDS011;9719;49.322;8.536;2023-04-19T07:18:39;2.95;;;2.75;;
19173;SDS011;9719;49.322;8.536;2023-04-19T07:23:42;3.15;;;2.53;;
19173;SDS011;9719;49.322;8.536;2023-04-19T07:28:45;3.42;;;3.13;;
19173;SDS011;9719;49.322;8.536;2023-04-19T07:33:47;2.90;;;2.70;;
19173;SDS011;9719;49.322;8.536;2023-04-19T07:38:49;4.10;;;2.33;;
19173;SDS011;9719;49.322;8.536;2023-04-19T07:43:52;2.50;;;2.30;;
19173;SDS011;9719;49.322;8.536;2023-04-19T07:48:54;4.32;;;2.83;;
19173;SDS011;9719;49.322;8.536;2023-04-19T07:53:55;2.30;;;2.13;;
19173;SDS011;9719;49.322;8.536;2023-04-19T07:58:58;3.10;;;2.80;;
19173;SDS011;9719;49.322;8.536;2023-04-19T08:04:00;2.33;;;2.22;;
19173;SDS011;9719;49.322;8.536;2023-04-19T08:09:02;3.35;;;2.50;;
19173;SDS011;9719;49.322;8.536;2023-04-19T08:14:05;2.80;;;2.55;;
19173;SDS011;9719;49.322;8.536;2023-04-19T08:19:07;3.60;;;3.30;;
19173;SDS011;9719;49.322;8.536;2023-04-19T08:24:08;4.65;;;3.63;;
19173;SDS011;9719;49.322;8.536;2023-04-19T08:29:11;4.50;;;3.42;;
19173;SDS011;9719;49.322;8.536;2023-04-19T08:34:13;3.00;;;2.75;;
19173;SDS011;9719;49.322;8.536;2023-04-19T08:39:15;3.47;;;2.63;;
19173;SDS011;9719;49.322;8.536;2023-04-19T08:44:18;1.98;;;1.88;;
19173;SDS011;9719;49.322;8.536;2023-04-19T08:49:21;4.22;;;2.63;;
19173;SDS011;9719;49.322;8.536;2023-04-19T08:54:23;4.38;;;2.55;;
19173;SDS011;9719;49.322;8.536;2023-04-19T08:59:26;3.22;;;2.35;;
19173;SDS011;9719;49.322;8.536;2023-04-19T09:04:29;3.72;;;2.80;;
19173;SDS011;9719;49.322;8.536;2023-04-19T09:09:31;2.03;;;1.85;;
19173;SDS011;9719;49.322;8.536;2023-04-19T09:14:34;3.40;;;2.17;;
19173;SDS011;9719;49.322;8.536;2023-04-19T09:19:45;3.42;;;2.53;;
19173;SDS011;9719;49.322;8.536;2023-04-19T09:24:47;2.15;;;1.95;;
19173;SDS011;9719;49.322;8.536;2023-04-19T09:29:52;2.83;;;2.63;;
19173;SDS011;9719;49.322;8.536;2023-04-19T09:34:55;3.97;;;2.70;;
19173;SDS011;9719;49.322;8.536;2023-04-19T09:39:58;2.25;;;2.15;;
19173;SDS011;9719;49.322;8.536;2023-04-19T09:45:03;2.03;;;1.88;;
19173;SDS011;9719;49.322;8.536;2023-04-19T09:50:07;2.40;;;2.00;;
19173;SDS011;9719;49.322;8.536;2023-04-19T09:55:09;2.10;;;2.00;;
19173;SDS011;9719;49.322;8.536;2023-04-19T10:00:13;1.80;;;1.70;;
19173;SDS011;9719;49.322;8.536;2023-04-19T10:05:15;2.33;;;2.13;;
19173;SDS011;9719;49.322;8.536;2023-04-19T10:10:17;2.83;;;2.13;;
19173;SDS011;9719;49.322;8.536;2023-04-19T10:15:22;2.50;;;2.17;;
19173;SDS011;9719;49.322;8.536;2023-04-19T10:20:31;2.47;;;2.28;;
19173;SDS011;9719;49.322;8.536;2023-04-19T10:25:37;3.78;;;2.33;;
19173;SDS011;9719;49.322;8.536;2023-04-19T10:30:51;2.15;;;2.05;;
19173;SDS011;9719;49.322;8.536;2023-04-19T10:35:54;3.10;;;2.90;;
19173;SDS011;9719;49.322;8.536;2023-04-19T10:40:58;3.33;;;2.80;;
19173;SDS011;9719;49.322;8.536;2023-04-19T10:46:05;3.50;;;2.65;;
19173;SDS011;9719;49.322;8.536;2023-04-19T10:51:12;3.55;;;3.25;;
19173;SDS011;9719;49.322;8.536;2023-04-19T10:56:15;3.65;;;3.35;;
19173;SDS011;9719;49.322;8.536;2023-04-19T11:01:32;3.80;;;3.35;;
19173;SDS011;9719;49.322;8.536;2023-04-19T11:06:36;4.28;;;3.25;;
19173;SDS011;9719;49.322;8.536;2023-04-19T11:11:39;8.43;;;3.78;;
19173;SDS011;9719;49.322;8.536;2023-04-19T11:16:42;3.10;;;2.80;;
19173;SDS011;9719;49.322;8.536;2023-04-19T11:21:44;2.90;;;2.33;;
19173;SDS011;9719;49.322;8.536;2023-04-19T11:26:46;4.53;;;2.70;;
19173;SDS011;9719;49.322;8.536;2023-04-19T11:31:49;5.53;;;2.65;;
19173;SDS011;9719;49.322;8.536;2023-04-19T11:36:51;3.35;;;2.63;;
19173;SDS011;9719;49.322;8.536;2023-04-19T11:41:53;4.18;;;2.95;;
19173;SDS011;9719;49.322;8.536;2023-04-19T11:47:01;3.40;;;3.15;;
19173;SDS011;9719;49.322;8.536;2023-04-19T11:52:04;5.28;;;3.50;;
19173;SDS011;9719;49.322;8.536;2023-04-19T11:57:06;3.30;;;2.90;;
19173;SDS011;9719;49.322;8.536;2023-04-19T12:02:11;4.03;;;2.55;;
19173;SDS011;9719;49.322;8.536;2023-04-19T12:07:12;3.67;;;3.25;;
19173;SDS011;9719;49.322;8.536;2023-04-19T12:17:35;3.08;;;2.78;;
19173;SDS011;9719;49.322;8.536;2023-04-19T12:22:56;4.00;;;2.70;;
19173;SDS011;9719;49.322;8.536;2023-04-19T12:27:58;3.58;;;2.95;;
19173;SDS011;9719;49.322;8.536;2023-04-19T12:33:02;1.95;;;1.70;;
19173;SDS011;9719;49.322;8.536;2023-04-19T12:38:04;2.42;;;2.22;;
19173;SDS011;9719;49.322;8.536;2023-04-19T12:43:06;2.40;;;2.20;;
19173;SDS011;9719;49.322;8.536;2023-04-19T12:48:09;2.65;;;2.45;;
19173;SDS011;9719;49.322;8.536;2023-04-19T12:53:11;4.25;;;2.75;;
19173;SDS011;9719;49.322;8.536;2023-04-19T12:58:12;2.25;;;2.05;;
19173;SDS011;9719;49.322;8.536;2023-04-19T13:03:16;2.92;;;2.70;;
19173;SDS011;9719;49.322;8.536;2023-04-19T13:08:17;1.30;;;1.20;;
19173;SDS011;9719;49.322;8.536;2023-04-19T13:13:20;2.22;;;2.03;;
19173;SDS011;9719;49.322;8.536;2023-04-19T13:18:23;1.73;;;1.63;;
19173;SDS011;9719;49.322;8.536;2023-04-19T13:23:25;2.45;;;1.65;;
19173;SDS011;9719;49.322;8.536;2023-04-19T13:28:27;2.40;;;2.30;;
19173;SDS011;9719;49.322;8.536;2023-04-19T13:33:31;3.10;;;2.20;;
19173;SDS011;9719;49.322;8.536;2023-04-19T13:38:33;2.30;;;2.10;;
19173;SDS011;9719;49.322;8.536;2023-04-19T13:43:35;2.97;;;2.53;;
19173;SDS011;9719;49.322;8.536;2023-04-19T13:48:38;4.10;;;3.38;;
19173;SDS011;9719;49.322;8.536;2023-04-19T13:53:40;3.25;;;3.00;;
19173;SDS011;9719;49.322;8.536;2023-04-19T13:58:41;4.75;;;3.08;;
19173;SDS011;9719;49.322;8.536;2023-04-19T14:03:44;3.78;;;3.05;;
19173;SDS011;9719;49.322;8.536;2023-04-19T14:08:46;4.07;;;3.35;;
19173;SDS011;9719;49.322;8.536;2023-04-19T14:13:48;6.10;;;3.28;;
19173;SDS011;9719;49.322;8.536;2023-04-19T14:18:51;6.43;;;3.75;;
19173;SDS011;9719;49.322;8.536;2023-04-19T14:23:53;3.95;;;3.50;;
19173;SDS011;9719;49.322;8.536;2023-04-19T14:28:55;4.57;;;4.18;;
19173;SDS011;9719;49.322;8.536;2023-04-19T14:33:58;3.22;;;2.92;;
19173;SDS011;9719;49.322;8.536;2023-04-19T14:39:00;3.83;;;3.30;;
19173;SDS011;9719;49.322;8.536;2023-04-19T14:44:01;3.70;;;3.25;;
19173;SDS011;9719;49.322;8.536;2023-04-19T14:49:04;5.65;;;3.45;;
19173;SDS011;9719;49.322;8.536;2023-04-19T14:54:06;3.85;;;3.28;;
19173;SDS011;9719;49.322;8.536;2023-04-19T14:59:08;3.80;;;3.05;;
19173;SDS011;9719;49.322;8.536;2023-04-19T15:04:11;3.25;;;2.72;;
19173;SDS011;9719;49.322;8.536;2023-04-19T15:09:13;3.95;;;3.42;;
19173;SDS011;9719;49.322;8.536;2023-04-19T15:14:15;3.65;;;1.80;;
19173;SDS011;9719;49.322;8.536;2023-04-19T15:19:18;1.83;;;1.73;;
19173;SDS011;9719;49.322;8.536;2023-04-19T15:24:20;1.92;;;1.70;;
19173;SDS011;9719;49.322;8.536;2023-04-19T15:29:21;2.40;;;1.50;;
19173;SDS011;9719;49.322;8.536;2023-04-19T15:34:24;1.42;;;1.33;;
19173;SDS011;9719;49.322;8.536;2023-04-19T15:39:26;1.10;;;1.00;;
19173;SDS011;9719;49.322;8.536;2023-04-19T15:44:28;1.30;;;1.20;;
19173;SDS011;9719;49.322;8.536;2023-04-19T15:49:31;1.30;;;1.23;;
19173;SDS011;9719;49.322;8.536;2023-04-19T15:54:33;1.45;;;1.38;;
19173;SDS011;9719;49.322;8.536;2023-04-19T15:59:36;1.65;;;1.33;;
19173;SDS011;9719;49.322;8.536;2023-04-19T16:04:39;1.02;;;1.02;;
19173;SDS011;9719;49.322;8.536;2023-04-19T16:09:41;1.00;;;0.73;;
19173;SDS011;9719;49.322;8.536;2023-04-19T16:14:43;1.15;;;1.05;;
19173;SDS011;9719;49.322;8.536;2023-04-19T16:19:46;1.00;;;1.00;;
19173;SDS011;9719;49.322;8.536;2023-04-19T16:24:47;1.30;;;1.13;;
19173;SDS011;9719;49.322;8.536;2023-04-19T16:29:50;2.80;;;1.30;;
19173;SDS011;9719;49.322;8.536;2023-04-19T16:34:53;1.15;;;1.05;;
19173;SDS011;9719;49.322;8.536;2023-04-19T16:39:54;2.33;;;1.42;;
19173;SDS011;9719;49.322;8.536;2023-04-19T16:44:56;1.20;;;1.10;;
19173;SDS011;9719;49.322;8.536;2023-04-19T16:49:59;1.30;;;1.23;;
19173;SDS011;9719;49.322;8.536;2023-04-19T16:55:01;0.60;;;0.60;;
19173;SDS011;9719;49.322;8.536;2023-04-19T17:00:04;1.90;;;0.80;;
19173;SDS011;9719;49.322;8.536;2023-04-19T17:05:10;0.80;;;0.80;;
19173;SDS011;9719;49.322;8.536;2023-04-19T17:10:12;1.48;;;0.70;;
19173;SDS011;9719;49.322;8.536;2023-04-19T17:15:14;0.88;;;0.88;;
19173;SDS011;9719;49.322;8.536;2023-04-19T17:20:17;3.17;;;1.17;;
19173;SDS011;9719;49.322;8.536;2023-04-19T17:25:20;2.85;;;0.70;;
19173;SDS011;9719;49.322;8.536;2023-04-19T17:30:22;0.77;;;0.77;;
19173;SDS011;9719;49.322;8.536;2023-04-19T17:35:25;1.15;;;0.88;;
19173;SDS011;9719;49.322;8.536;2023-04-19T17:40:26;0.75;;;0.75;;
19173;SDS011;9719;49.322;8.536;2023-04-19T17:45:28;0.80;;;0.80;;
19173;SDS011;9719;49.322;8.536;2023-04-19T17:50:31;1.40;;;1.33;;
19173;SDS011;9719;49.322;8.536;2023-04-19T17:55:33;0.90;;;0.90;;
19173;SDS011;9719;49.322;8.536;2023-04-19T18:00:35;0.90;;;0.90;;
19173;SDS011;9719;49.322;8.536;2023-04-19T18:05:38;0.85;;;0.85;;
19173;SDS011;9719;49.322;8.536;2023-04-19T18:10:40;1.00;;;0.95;;
19173;SDS011;9719;49.322;8.536;2023-04-19T18:15:42;0.90;;;0.90;;
19173;SDS011;9719;49.322;8.536;2023-04-19T18:20:45;0.90;;;0.90;;
19173;SDS011;9719;49.322;8.536;2023-04-19T18:25:51;0.98;;;0.98;;
19173;SDS011;9719;49.322;8.536;2023-04-19T18:30:53;0.80;;;0.80;;
19173;SDS011;9719;49.322;8.536;2023-04-19T18:35:57;2.10;;;1.40;;
19173;SDS011;9719;49.322;8.536;2023-04-19T18:40:58;2.15;;;1.02;;
19173;SDS011;9719;49.322;8.536;2023-04-19T18:46:00;1.50;;;1.40;;
19173;SDS011;9719;49.322;8.536;2023-04-19T18:51:03;1.63;;;1.58;;
19173;SDS011;9719;49.322;8.536;2023-04-19T18:56:08;0.80;;;0.80;;
19173;SDS011;9719;49.322;8.536;2023-04-19T19:01:11;1.40;;;1.30;;
19173;SDS011;9719;49.322;8.536;2023-04-19T19:06:14;1.20;;;1.20;;
19173;SDS011;9719;49.322;8.536;2023-04-19T19:11:15;1.30;;;1.20;;
19173;SDS011;9719;49.322;8.536;2023-04-19T19:16:17;1.92;;;1.83;;
19173;SDS011;9719;49.322;8.536;2023-04-19T19:21:20;5.63;;;5.07;;
19173;SDS011;9719;49.322;8.536;2023-04-19T19:26:22;2.78;;;2.58;;
19173;SDS011;9719;49.322;8.536;2023-04-19T19:31:25;1.95;;;1.85;;
19173;SDS011;9719;49.322;8.536;2023-04-19T19:36:28;2.38;;;2.25;;
19173;SDS011;9719;49.322;8.536;2023-04-19T19:41:30;3.92;;;3.50;;
19173;SDS011;9719;49.322;8.536;2023-04-19T19:46:31;2.13;;;2.03;;
19173;SDS011;9719;49.322;8.536;2023-04-19T19:51:35;1.10;;;1.10;;
19173;SDS011;9719;49.322;8.536;2023-04-19T19:56:36;1.05;;;0.95;;
19173;SDS011;9719;49.322;8.536;2023-04-19T20:01:38;1.10;;;1.10;;
19173;SDS011;9719;49.322;8.536;2023-04-19T20:06:41;4.22;;;3.90;;
19173;SDS011;9719;49.322;8.536;2023-04-19T20:11:43;4.25;;;3.95;;
19173;SDS011;9719;49.322;8.536;2023-04-19T20:16:45;1.38;;;1.38;;
19173;SDS011;9719;49.322;8.536;2023-04-19T20:21:48;1.17;;;1.17;;
19173;SDS011;9719;49.322;8.536;2023-04-19T20:26:50;2.55;;;2.35;;
19173;SDS011;9719;49.322;8.536;2023-04-19T20:31:51;1.60;;;1.50;;
19173;SDS011;9719;49.322;8.536;2023-04-19T20:36:54;1.73;;;1.55;;
19173;SDS011;9719;49.322;8.536;2023-04-19T20:41:57;1.65;;;1.55;;
19173;SDS011;9719;49.322;8.536;2023-04-19T20:47:00;2.30;;;2.10;;
19173;SDS011;9719;49.322;8.536;2023-04-19T20:52:04;1.88;;;1.77;;
19173;SDS011;9719;49.322;8.536;2023-04-19T20:57:06;1.90;;;1.77;;
19173;SDS011;9719;49.322;8.536;2023-04-19T21:02:08;2.95;;;2.75;;
19173;SDS011;9719;49.322;8.536;2023-04-19T21:07:12;2.13;;;1.80;;
19173;SDS011;9719;49.322;8.536;2023-04-19T21:12:14;1.40;;;1.30;;
19173;SDS011;9719;49.322;8.536;2023-04-19T21:17:16;2.85;;;2.58;;
19173;SDS011;9719;49.322;8.536;2023-04-19T21:22:19;3.70;;;3.17;;
19173;SDS011;9719;49.322;8.536;2023-04-19T21:27:20;6.35;;;5.75;;
19173;SDS011;9719;49.322;8.536;2023-04-19T21:32:22;12.97;;;9.80;;
19173;SDS011;9719;49.322;8.536;2023-04-19T21:37:26;6.40;;;5.53;;
19173;SDS011;9719;49.322;8.536;2023-04-19T21:42:28;2.63;;;2.42;;
19173;SDS011;9719;49.322;8.536;2023-04-19T21:47:30;2.60;;;2.40;;
19173;SDS011;9719;49.322;8.536;2023-04-19T21:52:34;1.75;;;1.65;;
19173;SDS011;9719;49.322;8.536;2023-04-19T21:57:35;2.42;;;2.22;;
19173;SDS011;9719;49.322;8.536;2023-04-19T22:02:37;2.00;;;1.55;;
19173;SDS011;9719;49.322;8.536;2023-04-19T22:07:41;2.00;;;1.90;;
19173;SDS011;9719;49.322;8.536;2023-04-19T22:12:43;2.67;;;1.80;;
19173;SDS011;9719;49.322;8.536;2023-04-19T22:17:45;1.40;;;1.35;;
19173;SDS011;9719;49.322;8.536;2023-04-19T22:22:48;1.58;;;1.40;;
19173;SDS011;9719;49.322;8.536;2023-04-19T22:27:50;2.07;;;1.87;;
19173;SDS011;9719;49.322;8.536;2023-04-19T22:32:51;1.63;;;1.52;;
19173;SDS011;9719;49.322;8.536;2023-04-19T22:37:54;1.88;;;1.70;;
19173;SDS011;9719;49.322;8.536;2023-04-19T22:42:56;2.28;;;2.03;;
19173;SDS011;9719;49.322;8.536;2023-04-19T22:47:58;1.33;;;1.30;;
19173;SDS011;9719;49.322;8.536;2023-04-19T22:53:01;1.27;;;1.17;;
19173;SDS011;9719;49.322;8.536;2023-04-19T22:58:03;1.20;;;1.20;;
19173;SDS011;9719;49.322;8.536;2023-04-19T23:03:05;1.80;;;1.63;;
19173;SDS011;9719;49.322;8.536;2023-04-19T23:08:08;1.57;;;1.47;;
19173;SDS011;9719;49.322;8.536;2023-04-19T23:13:11;1.98;;;1.83;;
19173;SDS011;9719;49.322;8.536;2023-04-19T23:18:14;2.08;;;1.98;;
19173;SDS011;9719;49.322;8.536;2023-04-19T23:23:18;1.77;;;1.67;;
19173;SDS011;9719;49.322;8.536;2023-04-19T23:28:20;1.17;;;1.17;;
19173;SDS011;9719;49.322;8.536;2023-04-19T23:33:22;2.10;;;1.90;;
19173;SDS011;9719;49.322;8.536;2023-04-19T23:38:25;2.73;;;2.20;;
19173;SDS011;9719;49.322;8.536;2023-04-19T23:43:27;1.90;;;1.80;;
19173;SDS011;9719;49.322;8.536;2023-04-19T23:48:28;2.27;;;2.17;;
19173;SDS011;9719;49.322;8.536;2023-04-19T23:53:31;1.77;;;1.70;;
19173;SDS011;9719;49.322;8.536;2023-04-19T23:58:33;1.47;;;1.43;;
